createdAt,value
2023-03-26T00:02:29.820Z,5.18
2023-03-26T00:04:57.917Z,7.72
2023-03-26T00:07:27.952Z,5.97
2023-03-26T00:09:57.901Z,6.90
2023-03-26T00:12:26.292Z,10.50
2023-03-26T00:14:54.191Z,8.10
2023-03-26T00:17:22.585Z,5.72
2023-03-26T00:19:53.645Z,7.60
2023-03-26T00:22:23.573Z,6.63
2023-03-26T00:24:51.496Z,8.40
2023-03-26T00:27:19.348Z,9.77
2023-03-26T00:29:48.246Z,7.95
2023-03-26T00:32:16.817Z,9.07
2023-03-26T00:34:46.183Z,8.03
2023-03-26T00:37:15.507Z,7.72
2023-03-26T00:39:44.584Z,5.50
2023-03-26T00:42:14.758Z,8.40
2023-03-26T00:44:42.604Z,6.65
2023-03-26T00:47:10.942Z,7.20
2023-03-26T00:49:39.346Z,7.22
2023-03-26T00:52:08.697Z,8.23
2023-03-26T00:54:38.015Z,9.00
2023-03-26T00:57:06.734Z,7.63
2023-03-26T00:59:35.770Z,8.03
2023-03-26T01:02:04.586Z,7.40
2023-03-26T01:04:37.502Z,6.00
2023-03-26T01:07:12.728Z,8.40
2023-03-26T01:09:50.181Z,8.05
2023-03-26T01:12:22.940Z,7.93
2023-03-26T01:14:52.742Z,13.98
2023-03-26T01:17:22.033Z,13.20
2023-03-26T01:19:55.361Z,11.55
2023-03-26T01:22:25.824Z,8.45
2023-03-26T01:24:56.625Z,14.60
2023-03-26T01:27:33.520Z,10.63
2023-03-26T01:30:10.513Z,9.27
2023-03-26T01:32:49.474Z,9.10
2023-03-26T01:35:31.031Z,9.90
2023-03-26T01:38:10.557Z,12.77
2023-03-26T01:40:47.026Z,8.02
2023-03-26T01:43:26.375Z,9.05
2023-03-26T01:45:57.143Z,11.85
2023-03-26T01:48:30.675Z,12.60
2023-03-26T01:50:58.831Z,10.87
2023-03-26T01:53:27.144Z,13.13
2023-03-26T01:56:06.933Z,9.40
2023-03-26T01:58:42.626Z,12.65
2023-03-26T02:01:24.314Z,10.68
2023-03-26T02:03:58.808Z,11.07
2023-03-26T02:06:31.328Z,11.30
2023-03-26T02:09:04.404Z,10.50
2023-03-26T02:11:38.149Z,11.27
2023-03-26T02:14:08.134Z,9.48
2023-03-26T02:16:36.449Z,9.47
2023-03-26T02:19:15.955Z,7.57
2023-03-26T02:21:44.056Z,12.63
2023-03-26T02:24:13.932Z,10.98
2023-03-26T02:26:45.197Z,11.18
2023-03-26T02:29:19.404Z,7.80
2023-03-26T02:31:49.341Z,9.80
2023-03-26T02:34:18.092Z,12.75
2023-03-26T02:36:54.084Z,8.20
2023-03-26T02:39:22.161Z,11.05
2023-03-26T02:41:59.018Z,10.50
2023-03-26T02:44:28.248Z,11.48
2023-03-26T02:46:58.915Z,9.65
2023-03-26T02:49:49.634Z,10.30
2023-03-26T02:52:24.875Z,9.18
2023-03-26T02:54:54.706Z,10.30
2023-03-26T02:57:25.980Z,7.90
2023-03-26T03:00:13.282Z,9.50
2023-03-26T03:02:47.942Z,10.70
2023-03-26T03:05:32.107Z,11.77
2023-03-26T03:08:19.276Z,10.67
2023-03-26T03:11:03.754Z,10.57
2023-03-26T03:13:41.123Z,9.23
2023-03-26T03:16:10.315Z,7.90
2023-03-26T03:18:38.201Z,6.63
2023-03-26T03:21:07.308Z,8.77
2023-03-26T03:23:35.526Z,7.32
2023-03-26T03:26:16.746Z,10.80
2023-03-26T03:28:52.124Z,10.35
2023-03-26T03:31:19.992Z,9.10
2023-03-26T03:33:48.217Z,10.57
2023-03-26T03:36:22.038Z,10.90
2023-03-26T03:39:02.456Z,8.35
2023-03-26T03:41:31.175Z,11.63
2023-03-26T03:44:02.939Z,10.88
2023-03-26T03:46:32.736Z,7.77
2023-03-26T03:49:00.788Z,11.82
2023-03-26T03:51:35.191Z,11.45
2023-03-26T03:54:06.058Z,11.93
2023-03-26T03:57:02.083Z,9.25
2023-03-26T03:59:33.959Z,10.70
2023-03-26T04:02:04.658Z,12.90
2023-03-26T04:04:50.093Z,10.63
2023-03-26T04:07:20.515Z,9.75
2023-03-26T04:10:10.589Z,12.55
2023-03-26T04:12:57.007Z,13.93
2023-03-26T04:15:42.940Z,11.52
2023-03-26T04:18:11.726Z,12.15
2023-03-26T04:20:46.556Z,9.95
2023-03-26T04:23:21.136Z,13.05
2023-03-26T04:25:54.722Z,9.60
2023-03-26T04:28:36.209Z,9.90
2023-03-26T04:31:32.034Z,11.02
2023-03-26T04:34:08.059Z,12.82
2023-03-26T04:36:46.303Z,7.80
2023-03-26T04:39:15.287Z,10.57
2023-03-26T04:42:08.697Z,9.15
2023-03-26T04:44:50.702Z,11.63
2023-03-26T04:47:20.334Z,13.70
2023-03-26T04:49:48.826Z,15.70
2023-03-26T04:52:18.520Z,13.23
2023-03-26T04:54:58.827Z,13.90
2023-03-26T04:57:36.715Z,10.55
2023-03-26T05:00:14.851Z,12.73
2023-03-26T05:02:45.829Z,14.98
2023-03-26T05:05:14.050Z,12.33
2023-03-26T05:07:44.460Z,14.80
2023-03-26T05:10:20.326Z,16.70
2023-03-26T05:12:55.652Z,13.20
2023-03-26T05:15:27.523Z,14.57
2023-03-26T05:17:59.749Z,16.30
2023-03-26T05:20:32.476Z,18.70
2023-03-26T05:23:00.353Z,14.50
2023-03-26T05:25:34.859Z,14.90
2023-03-26T05:28:04.741Z,15.65
2023-03-26T05:30:49.924Z,20.27
2023-03-26T05:33:19.340Z,16.55
2023-03-26T05:36:03.125Z,15.00
2023-03-26T05:38:32.943Z,19.20
2023-03-26T05:41:04.040Z,16.98
2023-03-26T05:43:32.771Z,20.03
2023-03-26T05:46:13.412Z,16.00
2023-03-26T05:48:44.548Z,14.13
2023-03-26T05:51:13.014Z,17.25
2023-03-26T05:53:44.563Z,17.20
2023-03-26T05:56:36.004Z,16.30
2023-03-26T05:59:22.630Z,20.20
2023-03-26T06:02:10.649Z,21.95
2023-03-26T06:04:58.850Z,24.58
2023-03-26T06:07:45.273Z,21.92
2023-03-26T06:10:19.237Z,22.03
2023-03-26T06:12:47.650Z,19.45
2023-03-26T06:15:15.958Z,18.08
2023-03-26T06:17:49.700Z,18.33
2023-03-26T06:20:46.436Z,20.73
2023-03-26T06:23:31.668Z,19.43
2023-03-26T06:26:19.024Z,22.42
2023-03-26T06:29:09.518Z,19.60
2023-03-26T06:31:48.888Z,25.50
2023-03-26T06:34:22.819Z,26.05
2023-03-26T06:36:52.955Z,26.00
2023-03-26T06:39:22.404Z,26.30
2023-03-26T06:42:16.683Z,20.40
2023-03-26T06:45:09.041Z,22.83
2023-03-26T06:47:55.571Z,21.67
2023-03-26T06:50:50.408Z,19.83
2023-03-26T06:53:38.031Z,24.83
2023-03-26T06:56:26.246Z,20.27
2023-03-26T06:59:06.804Z,24.42
2023-03-26T07:01:53.248Z,23.05
2023-03-26T07:04:59.333Z,21.93
2023-03-26T07:07:46.307Z,20.33
2023-03-26T07:10:34.768Z,24.42
2023-03-26T07:13:11.826Z,24.98
2023-03-26T07:16:02.645Z,25.13
2023-03-26T07:18:49.077Z,23.70
2023-03-26T07:21:22.592Z,19.85
2023-03-26T07:23:51.593Z,20.10
2023-03-26T07:26:48.997Z,21.10
2023-03-26T07:29:27.603Z,21.25
2023-03-26T07:32:19.177Z,22.73
2023-03-26T07:34:58.266Z,19.25
2023-03-26T07:37:44.838Z,24.23
2023-03-26T07:40:53.213Z,19.33
2023-03-26T07:44:11.521Z,20.50
2023-03-26T07:46:53.318Z,22.73
2023-03-26T07:49:37.628Z,24.05
2023-03-26T07:52:28.298Z,21.15
2023-03-26T07:55:08.367Z,20.52
2023-03-26T07:58:12.697Z,22.33
2023-03-26T08:00:57.778Z,20.07
2023-03-26T08:03:42.238Z,20.38
2023-03-26T08:06:36.191Z,17.02
2023-03-26T08:09:35.170Z,16.60
2023-03-26T08:12:27.297Z,19.30
2023-03-26T08:15:05.119Z,14.80
2023-03-26T08:17:42.741Z,14.05
2023-03-26T08:20:25.088Z,21.00
2023-03-26T08:23:02.100Z,17.67
2023-03-26T08:25:34.841Z,17.65
2023-03-26T08:28:23.217Z,24.23
2023-03-26T08:30:54.999Z,22.00
2023-03-26T08:33:28.158Z,17.65
2023-03-26T08:35:56.291Z,19.73
2023-03-26T08:38:24.748Z,17.13
2023-03-26T08:41:42.363Z,21.50
2023-03-26T08:44:47.561Z,19.13
2023-03-26T08:47:55.607Z,23.27
2023-03-26T08:50:49.480Z,16.33
2023-03-26T08:53:51.409Z,22.77
2023-03-26T08:56:24.555Z,24.77
2023-03-26T08:59:19.173Z,22.13
2023-03-26T09:02:20.597Z,18.35
2023-03-26T09:05:19.835Z,17.90
2023-03-26T09:08:17.113Z,16.45
2023-03-26T09:10:58.604Z,18.23
2023-03-26T09:13:49.626Z,18.25
2023-03-26T09:16:59.123Z,16.77
2023-03-26T09:19:53.409Z,20.60
2023-03-26T09:23:00.323Z,15.82
2023-03-26T09:25:57.707Z,17.20
2023-03-26T09:28:58.222Z,15.77
2023-03-26T09:31:57.775Z,16.40
2023-03-26T09:34:33.081Z,14.98
2023-03-26T09:37:18.783Z,18.23
2023-03-26T09:40:01.975Z,15.97
2023-03-26T09:42:39.889Z,19.70
2023-03-26T09:45:41.769Z,17.10
2023-03-26T09:48:45.787Z,18.33
2023-03-26T09:51:32.227Z,15.52
2023-03-26T09:54:33.803Z,16.30
2023-03-26T09:57:11.855Z,14.35
2023-03-26T10:00:01.622Z,14.73
2023-03-26T10:02:45.499Z,13.77
2023-03-26T10:05:41.506Z,14.25
2023-03-26T10:08:32.659Z,14.67
2023-03-26T10:11:06.312Z,10.57
2023-03-26T10:13:49.147Z,13.10
2023-03-26T10:16:27.133Z,9.65
2023-03-26T10:19:11.899Z,13.13
2023-03-26T10:21:46.934Z,15.33
2023-03-26T10:24:29.148Z,12.80
2023-03-26T10:27:25.286Z,14.68
2023-03-26T10:30:25.871Z,13.85
2023-03-26T10:33:05.944Z,12.20
2023-03-26T10:35:46.246Z,11.53
2023-03-26T10:38:23.428Z,9.77
2023-03-26T10:41:05.893Z,10.52
2023-03-26T10:44:07.379Z,13.25
2023-03-26T10:46:52.181Z,14.75
2023-03-26T10:49:55.949Z,12.07
2023-03-26T10:52:26.143Z,12.43
2023-03-26T10:54:57.237Z,14.40
2023-03-26T10:57:39.205Z,16.80
2023-03-26T11:00:16.954Z,13.55
2023-03-26T11:02:55.653Z,13.60
2023-03-26T11:05:47.490Z,16.95
2023-03-26T11:08:31.768Z,19.73
2023-03-26T11:11:06.432Z,12.65
2023-03-26T11:13:46.930Z,16.65
2023-03-26T11:16:22.971Z,17.43
2023-03-26T11:18:57.400Z,14.77
2023-03-26T11:21:34.503Z,15.13
2023-03-26T11:24:24.131Z,15.02
2023-03-26T11:26:57.053Z,13.68
2023-03-26T11:29:50.789Z,12.73
2023-03-26T11:32:23.186Z,13.13
2023-03-26T11:34:59.715Z,12.95
2023-03-26T11:37:33.725Z,14.07
2023-03-26T11:40:06.668Z,11.93
2023-03-26T11:42:34.916Z,13.93
2023-03-26T11:45:06.573Z,15.23
2023-03-26T11:47:43.679Z,9.85
2023-03-26T11:50:17.956Z,14.60
2023-03-26T11:52:47.894Z,12.18
2023-03-26T11:55:16.202Z,19.27
2023-03-26T11:57:51.030Z,12.13
2023-03-26T12:00:21.365Z,12.07
2023-03-26T12:02:50.813Z,11.90
2023-03-26T12:05:21.223Z,14.93
2023-03-26T12:07:58.538Z,10.87
2023-03-26T12:10:30.986Z,10.65
2023-03-26T12:13:01.345Z,11.10
2023-03-26T12:15:32.009Z,8.70
2023-03-26T12:18:18.738Z,10.35
2023-03-26T12:20:48.164Z,12.90
2023-03-26T12:23:37.610Z,11.98
2023-03-26T12:26:16.064Z,11.50
2023-03-26T12:28:48.603Z,7.95
2023-03-26T12:31:19.525Z,10.85
2023-03-26T12:34:07.627Z,12.03
2023-03-26T12:36:38.980Z,10.98
2023-03-26T12:40:07.269Z,13.88
2023-03-26T12:44:47.592Z,10.27
2023-03-26T12:45:17.225Z,10.20
2023-03-26T12:47:59.507Z,13.53
2023-03-26T12:50:43.233Z,7.68
2023-03-26T12:53:27.058Z,7.28
2023-03-26T12:56:09.329Z,9.30
2023-03-26T12:58:59.250Z,6.13
2023-03-26T13:01:37.123Z,6.57
2023-03-26T13:05:02.341Z,7.22
2023-03-26T13:07:54.686Z,5.43
2023-03-26T13:10:40.459Z,6.20
2023-03-26T13:13:45.583Z,6.97
2023-03-26T13:16:24.912Z,5.90
2023-03-26T13:18:56.594Z,5.68
2023-03-26T13:21:36.067Z,6.13
2023-03-26T13:24:16.710Z,5.68
2023-03-26T13:26:57.849Z,7.35
2023-03-26T13:29:38.729Z,6.30
2023-03-26T13:32:16.308Z,8.23
2023-03-26T13:35:01.959Z,6.82
2023-03-26T13:37:36.100Z,8.25
2023-03-26T13:40:22.271Z,8.13
2023-03-26T13:43:06.639Z,6.87
2023-03-26T13:45:47.489Z,8.40
2023-03-26T13:48:20.219Z,9.32
2023-03-26T13:50:57.986Z,7.80
2023-03-26T13:53:31.644Z,7.82
2023-03-26T13:56:01.361Z,5.33
2023-03-26T13:58:36.863Z,5.72
2023-03-26T14:01:12.326Z,7.35
2023-03-26T15:42:54.506Z,8.10
2023-03-26T15:45:42.665Z,8.87
2023-03-26T15:48:37.421Z,10.80
2023-03-26T15:51:46.423Z,7.15
2023-03-26T15:54:47.009Z,12.57
2023-03-26T15:57:39.119Z,10.40
2023-03-26T16:00:31.856Z,10.33
2023-03-26T16:03:34.418Z,12.80
2023-03-26T16:06:35.782Z,12.45
2023-03-26T16:09:38.748Z,9.75
2023-03-26T16:12:31.804Z,9.73
2023-03-26T16:15:32.302Z,6.50
2023-03-26T16:18:33.950Z,11.25
2023-03-26T16:21:56.092Z,9.93
2023-03-26T16:24:47.518Z,11.68
2023-03-26T16:27:43.093Z,8.48
2023-03-26T16:30:33.036Z,9.20
2023-03-26T16:33:21.597Z,7.55
2023-03-26T16:36:25.885Z,12.00
2023-03-26T16:39:22.249Z,10.00
2023-03-26T16:42:37.008Z,8.40
2023-03-26T16:45:19.062Z,9.10
